sensor_id;sensor_type;location;lat;lon;timestamp;P1;durP1;ratioP1;P2;durP2;ratioP2
3066;SDS011;1544;48.834;9.194;2023-04-23T00:02:28;2.60;;;1.77;;
3066;SDS011;1544;48.834;9.194;2023-04-23T00:05:09;2.10;;;1.73;;
3066;SDS011;1544;48.834;9.194;2023-04-23T00:07:46;2.13;;;1.97;;
3066;SDS011;1544;48.834;9.194;2023-04-23T00:10:21;1.90;;;1.80;;
3066;SDS011;1544;48.834;9.194;2023-04-23T00:12:57;2.90;;;1.90;;
3066;SDS011;1544;48.834;9.194;2023-04-23T00:15:32;2.60;;;1.80;;
3066;SDS011;1544;48.834;9.194;2023-04-23T00:18:08;2.77;;;1.77;;
3066;SDS011;1544;48.834;9.194;2023-04-23T00:20:43;1.93;;;1.77;;
3066;SDS011;1544;48.834;9.194;2023-04-23T00:23:18;3.10;;;1.50;;
3066;SDS011;1544;48.834;9.194;2023-04-23T00:25:52;1.63;;;1.53;;
3066;SDS011;1544;48.834;9.194;2023-04-23T00:28:27;1.90;;;1.60;;
3066;SDS011;1544;48.834;9.194;2023-04-23T00:31:03;2.00;;;1.80;;
3066;SDS011;1544;48.834;9.194;2023-04-23T00:33:38;2.87;;;1.80;;
3066;SDS011;1544;48.834;9.194;2023-04-23T00:36:13;2.20;;;2.00;;
3066;SDS011;1544;48.834;9.194;2023-04-23T00:38:47;2.53;;;1.40;;
3066;SDS011;1544;48.834;9.194;2023-04-23T00:41:22;1.60;;;1.43;;
3066;SDS011;1544;48.834;9.194;2023-04-23T00:43:59;2.77;;;1.70;;
3066;SDS011;1544;48.834;9.194;2023-04-23T00:46:35;4.03;;;1.43;;
3066;SDS011;1544;48.834;9.194;2023-04-23T00:49:10;1.70;;;1.60;;
3066;SDS011;1544;48.834;9.194;2023-04-23T00:51:47;1.73;;;1.63;;
3066;SDS011;1544;48.834;9.194;2023-04-23T00:54:22;1.50;;;1.40;;
3066;SDS011;1544;48.834;9.194;2023-04-23T00:56:57;1.97;;;1.77;;
3066;SDS011;1544;48.834;9.194;2023-04-23T00:59:33;2.70;;;1.83;;
3066;SDS011;1544;48.834;9.194;2023-04-23T01:02:09;4.00;;;1.80;;
3066;SDS011;1544;48.834;9.194;2023-04-23T01:04:46;1.77;;;1.67;;
3066;SDS011;1544;48.834;9.194;2023-04-23T01:07:24;1.80;;;1.70;;
3066;SDS011;1544;48.834;9.194;2023-04-23T01:10:01;2.40;;;1.77;;
3066;SDS011;1544;48.834;9.194;2023-04-23T01:12:38;2.70;;;1.50;;
3066;SDS011;1544;48.834;9.194;2023-04-23T01:15:13;1.80;;;1.70;;
3066;SDS011;1544;48.834;9.194;2023-04-23T01:17:48;2.60;;;1.60;;
3066;SDS011;1544;48.834;9.194;2023-04-23T01:20:23;1.90;;;1.80;;
3066;SDS011;1544;48.834;9.194;2023-04-23T01:22:58;1.73;;;1.50;;
3066;SDS011;1544;48.834;9.194;2023-04-23T01:25:33;1.63;;;1.53;;
3066;SDS011;1544;48.834;9.194;2023-04-23T01:28:08;3.77;;;1.50;;
3066;SDS011;1544;48.834;9.194;2023-04-23T01:30:44;2.43;;;1.60;;
3066;SDS011;1544;48.834;9.194;2023-04-23T01:33:20;1.93;;;1.80;;
3066;SDS011;1544;48.834;9.194;2023-04-23T01:35:55;3.30;;;1.40;;
3066;SDS011;1544;48.834;9.194;2023-04-23T01:38:30;1.67;;;1.53;;
3066;SDS011;1544;48.834;9.194;2023-04-23T01:41:07;1.67;;;1.57;;
3066;SDS011;1544;48.834;9.194;2023-04-23T01:43:42;2.07;;;1.60;;
3066;SDS011;1544;48.834;9.194;2023-04-23T01:46:19;1.60;;;1.50;;
3066;SDS011;1544;48.834;9.194;2023-04-23T01:48:54;2.90;;;1.50;;
3066;SDS011;1544;48.834;9.194;2023-04-23T01:51:29;2.27;;;1.60;;
3066;SDS011;1544;48.834;9.194;2023-04-23T01:54:04;1.83;;;1.73;;
3066;SDS011;1544;48.834;9.194;2023-04-23T01:56:39;1.90;;;1.80;;
3066;SDS011;1544;48.834;9.194;2023-04-23T01:59:15;1.80;;;1.70;;
3066;SDS011;1544;48.834;9.194;2023-04-23T02:01:50;3.70;;;1.70;;
3066;SDS011;1544;48.834;9.194;2023-04-23T02:04:25;2.90;;;1.60;;
3066;SDS011;1544;48.834;9.194;2023-04-23T02:07:01;2.70;;;1.70;;
3066;SDS011;1544;48.834;9.194;2023-04-23T02:09:36;2.47;;;1.73;;
3066;SDS011;1544;48.834;9.194;2023-04-23T02:12:11;1.70;;;1.60;;
3066;SDS011;1544;48.834;9.194;2023-04-23T02:14:46;2.13;;;1.60;;
3066;SDS011;1544;48.834;9.194;2023-04-23T02:17:21;1.80;;;1.70;;
3066;SDS011;1544;48.834;9.194;2023-04-23T02:19:56;1.57;;;1.47;;
3066;SDS011;1544;48.834;9.194;2023-04-23T02:22:31;1.67;;;1.57;;
3066;SDS011;1544;48.834;9.194;2023-04-23T02:25:07;1.60;;;1.30;;
3066;SDS011;1544;48.834;9.194;2023-04-23T02:27:43;1.83;;;1.70;;
3066;SDS011;1544;48.834;9.194;2023-04-23T02:30:18;1.80;;;1.70;;
3066;SDS011;1544;48.834;9.194;2023-04-23T02:32:53;1.60;;;1.50;;
3066;SDS011;1544;48.834;9.194;2023-04-23T02:35:29;1.80;;;1.70;;
3066;SDS011;1544;48.834;9.194;2023-04-23T02:38:04;1.70;;;1.60;;
3066;SDS011;1544;48.834;9.194;2023-04-23T02:40:40;1.60;;;1.50;;
3066;SDS011;1544;48.834;9.194;2023-04-23T02:43:16;1.70;;;1.60;;
3066;SDS011;1544;48.834;9.194;2023-04-23T02:45:51;1.67;;;1.57;;
3066;SDS011;1544;48.834;9.194;2023-04-23T02:48:26;2.07;;;1.70;;
3066;SDS011;1544;48.834;9.194;2023-04-23T02:51:03;1.70;;;1.60;;
3066;SDS011;1544;48.834;9.194;2023-04-23T02:53:39;2.30;;;2.07;;
3066;SDS011;1544;48.834;9.194;2023-04-23T02:56:14;1.70;;;1.57;;
3066;SDS011;1544;48.834;9.194;2023-04-23T02:58:49;2.30;;;2.17;;
3066;SDS011;1544;48.834;9.194;2023-04-23T03:01:25;2.37;;;2.00;;
3066;SDS011;1544;48.834;9.194;2023-04-23T03:04:00;3.37;;;1.80;;
3066;SDS011;1544;48.834;9.194;2023-04-23T03:06:37;2.47;;;2.37;;
3066;SDS011;1544;48.834;9.194;2023-04-23T03:09:12;2.07;;;1.80;;
3066;SDS011;1544;48.834;9.194;2023-04-23T03:11:46;2.13;;;2.03;;
3066;SDS011;1544;48.834;9.194;2023-04-23T03:14:21;1.70;;;1.60;;
3066;SDS011;1544;48.834;9.194;2023-04-23T03:16:56;2.43;;;1.70;;
3066;SDS011;1544;48.834;9.194;2023-04-23T03:19:31;2.60;;;2.20;;
3066;SDS011;1544;48.834;9.194;2023-04-23T03:22:07;2.37;;;2.13;;
3066;SDS011;1544;48.834;9.194;2023-04-23T03:24:42;1.90;;;1.80;;
3066;SDS011;1544;48.834;9.194;2023-04-23T03:27:17;1.80;;;1.70;;
3066;SDS011;1544;48.834;9.194;2023-04-23T03:29:52;1.53;;;1.43;;
3066;SDS011;1544;48.834;9.194;2023-04-23T03:32:27;1.77;;;1.67;;
3066;SDS011;1544;48.834;9.194;2023-04-23T03:35:02;1.73;;;1.63;;
3066;SDS011;1544;48.834;9.194;2023-04-23T03:37:38;1.60;;;1.50;;
3066;SDS011;1544;48.834;9.194;2023-04-23T03:40:14;1.70;;;1.60;;
3066;SDS011;1544;48.834;9.194;2023-04-23T03:42:52;1.60;;;1.50;;
3066;SDS011;1544;48.834;9.194;2023-04-23T03:45:36;1.90;;;1.50;;
3066;SDS011;1544;48.834;9.194;2023-04-23T03:48:11;1.33;;;1.23;;
3066;SDS011;1544;48.834;9.194;2023-04-23T03:50:46;1.47;;;1.37;;
3066;SDS011;1544;48.834;9.194;2023-04-23T03:53:37;1.63;;;1.30;;
3066;SDS011;1544;48.834;9.194;2023-04-23T03:56:31;1.40;;;1.30;;
3066;SDS011;1544;48.834;9.194;2023-04-23T03:59:32;1.37;;;1.00;;
3066;SDS011;1544;48.834;9.194;2023-04-23T04:02:07;1.30;;;1.20;;
3066;SDS011;1544;48.834;9.194;2023-04-23T04:04:42;1.30;;;1.20;;
3066;SDS011;1544;48.834;9.194;2023-04-23T04:07:19;1.33;;;1.20;;
3066;SDS011;1544;48.834;9.194;2023-04-23T04:09:55;1.20;;;1.10;;
3066;SDS011;1544;48.834;9.194;2023-04-23T04:12:32;1.10;;;1.00;;
3066;SDS011;1544;48.834;9.194;2023-04-23T04:15:07;1.37;;;1.20;;
3066;SDS011;1544;48.834;9.194;2023-04-23T04:17:42;1.63;;;1.30;;
3066;SDS011;1544;48.834;9.194;2023-04-23T04:20:19;1.20;;;1.10;;
3066;SDS011;1544;48.834;9.194;2023-04-23T04:22:54;1.53;;;1.23;;
3066;SDS011;1544;48.834;9.194;2023-04-23T04:25:29;1.33;;;1.10;;
3066;SDS011;1544;48.834;9.194;2023-04-23T04:28:05;1.30;;;1.20;;
3066;SDS011;1544;48.834;9.194;2023-04-23T04:30:45;1.57;;;1.23;;
3066;SDS011;1544;48.834;9.194;2023-04-23T04:33:20;1.10;;;1.10;;
3066;SDS011;1544;48.834;9.194;2023-04-23T04:35:55;1.30;;;1.20;;
3066;SDS011;1544;48.834;9.194;2023-04-23T04:38:30;1.57;;;1.20;;
3066;SDS011;1544;48.834;9.194;2023-04-23T04:41:05;1.50;;;1.30;;
3066;SDS011;1544;48.834;9.194;2023-04-23T04:43:40;1.43;;;1.10;;
3066;SDS011;1544;48.834;9.194;2023-04-23T04:46:17;1.10;;;1.00;;
3066;SDS011;1544;48.834;9.194;2023-04-23T04:48:54;1.20;;;1.10;;
3066;SDS011;1544;48.834;9.194;2023-04-23T04:51:29;1.70;;;0.90;;
3066;SDS011;1544;48.834;9.194;2023-04-23T04:54:04;1.77;;;1.20;;
3066;SDS011;1544;48.834;9.194;2023-04-23T04:56:40;1.40;;;1.30;;
3066;SDS011;1544;48.834;9.194;2023-04-23T04:59:15;1.43;;;0.97;;
3066;SDS011;1544;48.834;9.194;2023-04-23T05:01:50;0.93;;;0.93;;
3066;SDS011;1544;48.834;9.194;2023-04-23T05:04:25;1.10;;;1.10;;
3066;SDS011;1544;48.834;9.194;2023-04-23T05:07:00;0.93;;;0.93;;
3066;SDS011;1544;48.834;9.194;2023-04-23T05:09:35;0.93;;;0.93;;
3066;SDS011;1544;48.834;9.194;2023-04-23T05:12:10;1.20;;;1.10;;
3066;SDS011;1544;48.834;9.194;2023-04-23T05:14:45;0.80;;;0.80;;
3066;SDS011;1544;48.834;9.194;2023-04-23T05:17:20;1.00;;;1.00;;
3066;SDS011;1544;48.834;9.194;2023-04-23T05:19:55;1.00;;;0.90;;
3066;SDS011;1544;48.834;9.194;2023-04-23T05:22:30;1.17;;;1.07;;
3066;SDS011;1544;48.834;9.194;2023-04-23T05:25:06;1.27;;;1.17;;
3066;SDS011;1544;48.834;9.194;2023-04-23T05:27:42;1.80;;;1.00;;
3066;SDS011;1544;48.834;9.194;2023-04-23T05:30:17;1.10;;;1.10;;
3066;SDS011;1544;48.834;9.194;2023-04-23T05:32:52;0.93;;;0.90;;
3066;SDS011;1544;48.834;9.194;2023-04-23T05:35:27;2.50;;;1.40;;
3066;SDS011;1544;48.834;9.194;2023-04-23T05:38:02;1.40;;;1.30;;
3066;SDS011;1544;48.834;9.194;2023-04-23T05:40:38;1.00;;;0.90;;
3066;SDS011;1544;48.834;9.194;2023-04-23T05:43:13;0.97;;;0.97;;
3066;SDS011;1544;48.834;9.194;2023-04-23T05:45:48;1.07;;;1.07;;
3066;SDS011;1544;48.834;9.194;2023-04-23T05:48:23;2.67;;;1.03;;
3066;SDS011;1544;48.834;9.194;2023-04-23T05:50:58;1.30;;;1.20;;
3066;SDS011;1544;48.834;9.194;2023-04-23T05:53:33;0.93;;;0.93;;
3066;SDS011;1544;48.834;9.194;2023-04-23T05:56:08;1.17;;;1.07;;
3066;SDS011;1544;48.834;9.194;2023-04-23T05:58:46;0.90;;;0.90;;
3066;SDS011;1544;48.834;9.194;2023-04-23T06:01:21;1.20;;;1.10;;
3066;SDS011;1544;48.834;9.194;2023-04-23T06:03:56;1.10;;;1.00;;
3066;SDS011;1544;48.834;9.194;2023-04-23T06:06:32;1.00;;;1.00;;
3066;SDS011;1544;48.834;9.194;2023-04-23T06:09:07;0.80;;;0.80;;
3066;SDS011;1544;48.834;9.194;2023-04-23T06:11:42;0.93;;;0.90;;
3066;SDS011;1544;48.834;9.194;2023-04-23T06:14:17;0.90;;;0.90;;
3066;SDS011;1544;48.834;9.194;2023-04-23T06:16:52;0.90;;;0.90;;
3066;SDS011;1544;48.834;9.194;2023-04-23T06:19:27;0.80;;;0.80;;
3066;SDS011;1544;48.834;9.194;2023-04-23T06:22:02;1.10;;;1.00;;
3066;SDS011;1544;48.834;9.194;2023-04-23T06:24:37;1.07;;;0.90;;
3066;SDS011;1544;48.834;9.194;2023-04-23T06:27:14;0.93;;;0.93;;
3066;SDS011;1544;48.834;9.194;2023-04-23T06:29:55;0.80;;;0.80;;
3066;SDS011;1544;48.834;9.194;2023-04-23T06:32:30;1.00;;;0.87;;
3066;SDS011;1544;48.834;9.194;2023-04-23T06:35:05;0.63;;;0.63;;
3066;SDS011;1544;48.834;9.194;2023-04-23T06:37:43;0.70;;;0.70;;
3066;SDS011;1544;48.834;9.194;2023-04-23T06:40:18;0.83;;;0.83;;
3066;SDS011;1544;48.834;9.194;2023-04-23T06:42:53;0.80;;;0.80;;
3066;SDS011;1544;48.834;9.194;2023-04-23T06:45:55;0.80;;;0.80;;
3066;SDS011;1544;48.834;9.194;2023-04-23T06:48:30;0.80;;;0.80;;
3066;SDS011;1544;48.834;9.194;2023-04-23T06:51:05;0.80;;;0.80;;
3066;SDS011;1544;48.834;9.194;2023-04-23T06:53:40;0.80;;;0.80;;
3066;SDS011;1544;48.834;9.194;2023-04-23T06:56:15;0.80;;;0.80;;
3066;SDS011;1544;48.834;9.194;2023-04-23T06:58:50;1.20;;;1.10;;
3066;SDS011;1544;48.834;9.194;2023-04-23T07:01:27;1.00;;;1.00;;
3066;SDS011;1544;48.834;9.194;2023-04-23T07:04:02;1.40;;;1.00;;
3066;SDS011;1544;48.834;9.194;2023-04-23T07:06:37;1.37;;;1.20;;
3066;SDS011;1544;48.834;9.194;2023-04-23T07:09:12;1.80;;;1.20;;
3066;SDS011;1544;48.834;9.194;2023-04-23T07:11:48;1.00;;;0.90;;
3066;SDS011;1544;48.834;9.194;2023-04-23T07:14:23;1.03;;;0.90;;
3066;SDS011;1544;48.834;9.194;2023-04-23T07:16:58;0.90;;;0.90;;
3066;SDS011;1544;48.834;9.194;2023-04-23T07:19:33;1.53;;;0.90;;
3066;SDS011;1544;48.834;9.194;2023-04-23T07:22:08;1.00;;;0.80;;
3066;SDS011;1544;48.834;9.194;2023-04-23T07:24:44;0.80;;;0.80;;
3066;SDS011;1544;48.834;9.194;2023-04-23T07:27:19;1.03;;;1.03;;
3066;SDS011;1544;48.834;9.194;2023-04-23T07:29:54;1.10;;;1.00;;
3066;SDS011;1544;48.834;9.194;2023-04-23T07:32:29;1.27;;;0.90;;
3066;SDS011;1544;48.834;9.194;2023-04-23T07:35:04;1.63;;;1.53;;
3066;SDS011;1544;48.834;9.194;2023-04-23T07:37:41;1.13;;;1.03;;
3066;SDS011;1544;48.834;9.194;2023-04-23T07:40:16;1.20;;;1.10;;
3066;SDS011;1544;48.834;9.194;2023-04-23T07:42:51;1.10;;;0.90;;
3066;SDS011;1544;48.834;9.194;2023-04-23T07:45:26;1.10;;;0.70;;
3066;SDS011;1544;48.834;9.194;2023-04-23T07:48:01;0.70;;;0.70;;
3066;SDS011;1544;48.834;9.194;2023-04-23T07:50:36;0.70;;;0.70;;
3066;SDS011;1544;48.834;9.194;2023-04-23T07:53:11;0.70;;;0.70;;
3066;SDS011;1544;48.834;9.194;2023-04-23T07:55:46;0.93;;;0.90;;
3066;SDS011;1544;48.834;9.194;2023-04-23T07:58:21;0.80;;;0.80;;
3066;SDS011;1544;48.834;9.194;2023-04-23T08:00:58;1.20;;;1.10;;
3066;SDS011;1544;48.834;9.194;2023-04-23T08:03:33;1.23;;;1.00;;
3066;SDS011;1544;48.834;9.194;2023-04-23T08:06:09;1.13;;;0.90;;
3066;SDS011;1544;48.834;9.194;2023-04-23T08:08:48;1.10;;;0.93;;
3066;SDS011;1544;48.834;9.194;2023-04-23T08:11:23;0.80;;;0.80;;
3066;SDS011;1544;48.834;9.194;2023-04-23T08:13:58;3.00;;;0.90;;
3066;SDS011;1544;48.834;9.194;2023-04-23T08:16:34;1.03;;;0.90;;
3066;SDS011;1544;48.834;9.194;2023-04-23T08:19:12;1.73;;;0.80;;
3066;SDS011;1544;48.834;9.194;2023-04-23T08:21:47;0.70;;;0.70;;
3066;SDS011;1544;48.834;9.194;2023-04-23T08:24:22;1.00;;;1.00;;
3066;SDS011;1544;48.834;9.194;2023-04-23T08:26:57;1.37;;;1.27;;
3066;SDS011;1544;48.834;9.194;2023-04-23T08:29:32;0.90;;;0.90;;
3066;SDS011;1544;48.834;9.194;2023-04-23T08:32:07;0.80;;;0.80;;
3066;SDS011;1544;48.834;9.194;2023-04-23T08:34:42;2.10;;;1.10;;
3066;SDS011;1544;48.834;9.194;2023-04-23T08:37:17;0.90;;;0.90;;
3066;SDS011;1544;48.834;9.194;2023-04-23T08:40:04;1.00;;;0.90;;
3066;SDS011;1544;48.834;9.194;2023-04-23T08:42:52;1.20;;;0.83;;
3066;SDS011;1544;48.834;9.194;2023-04-23T08:45:31;1.23;;;0.90;;
3066;SDS011;1544;48.834;9.194;2023-04-23T08:48:14;0.90;;;0.90;;
3066;SDS011;1544;48.834;9.194;2023-04-23T08:50:50;1.07;;;0.97;;
3066;SDS011;1544;48.834;9.194;2023-04-23T08:53:25;0.80;;;0.80;;
3066;SDS011;1544;48.834;9.194;2023-04-23T08:56:05;1.00;;;1.00;;
3066;SDS011;1544;48.834;9.194;2023-04-23T08:58:41;0.90;;;0.90;;
3066;SDS011;1544;48.834;9.194;2023-04-23T09:01:17;0.90;;;0.90;;
3066;SDS011;1544;48.834;9.194;2023-04-23T09:03:54;0.97;;;0.70;;
3066;SDS011;1544;48.834;9.194;2023-04-23T09:06:29;0.80;;;0.80;;
3066;SDS011;1544;48.834;9.194;2023-04-23T09:09:08;1.00;;;0.87;;
3066;SDS011;1544;48.834;9.194;2023-04-23T09:11:43;1.13;;;0.97;;
3066;SDS011;1544;48.834;9.194;2023-04-23T09:14:18;0.93;;;0.90;;
3066;SDS011;1544;48.834;9.194;2023-04-23T09:16:55;0.90;;;0.90;;
3066;SDS011;1544;48.834;9.194;2023-04-23T09:19:30;1.10;;;0.73;;
3066;SDS011;1544;48.834;9.194;2023-04-23T09:22:06;1.03;;;1.00;;
3066;SDS011;1544;48.834;9.194;2023-04-23T09:24:41;1.20;;;1.10;;
3066;SDS011;1544;48.834;9.194;2023-04-23T09:27:18;0.90;;;0.90;;
3066;SDS011;1544;48.834;9.194;2023-04-23T09:29:59;1.27;;;1.20;;
3066;SDS011;1544;48.834;9.194;2023-04-23T09:32:41;0.93;;;0.93;;
3066;SDS011;1544;48.834;9.194;2023-04-23T09:35:19;0.90;;;0.90;;
3066;SDS011;1544;48.834;9.194;2023-04-23T09:37:54;2.60;;;0.90;;
3066;SDS011;1544;48.834;9.194;2023-04-23T09:40:29;1.03;;;0.93;;
3066;SDS011;1544;48.834;9.194;2023-04-23T09:43:04;0.80;;;0.80;;
3066;SDS011;1544;48.834;9.194;2023-04-23T09:45:47;0.97;;;0.93;;
3066;SDS011;1544;48.834;9.194;2023-04-23T09:48:23;1.67;;;1.00;;
3066;SDS011;1544;48.834;9.194;2023-04-23T09:51:14;0.90;;;0.90;;
3066;SDS011;1544;48.834;9.194;2023-04-23T09:53:49;0.80;;;0.80;;
3066;SDS011;1544;48.834;9.194;2023-04-23T09:56:24;1.37;;;1.00;;
3066;SDS011;1544;48.834;9.194;2023-04-23T09:58:59;0.87;;;0.87;;
3066;SDS011;1544;48.834;9.194;2023-04-23T10:01:35;0.70;;;0.70;;
3066;SDS011;1544;48.834;9.194;2023-04-23T10:04:11;0.80;;;0.80;;
3066;SDS011;1544;48.834;9.194;2023-04-23T10:06:55;0.83;;;0.83;;
3066;SDS011;1544;48.834;9.194;2023-04-23T10:09:55;0.80;;;0.80;;
3066;SDS011;1544;48.834;9.194;2023-04-23T10:12:30;0.80;;;0.80;;
3066;SDS011;1544;48.834;9.194;2023-04-23T10:15:26;1.00;;;0.90;;
3066;SDS011;1544;48.834;9.194;2023-04-23T10:18:01;0.70;;;0.70;;
3066;SDS011;1544;48.834;9.194;2023-04-23T10:20:39;1.30;;;0.70;;
3066;SDS011;1544;48.834;9.194;2023-04-23T10:23:16;0.70;;;0.70;;
3066;SDS011;1544;48.834;9.194;2023-04-23T10:25:53;0.60;;;0.60;;
3066;SDS011;1544;48.834;9.194;2023-04-23T10:28:29;1.70;;;0.80;;
3066;SDS011;1544;48.834;9.194;2023-04-23T10:31:07;0.70;;;0.70;;
3066;SDS011;1544;48.834;9.194;2023-04-23T10:33:46;0.67;;;0.67;;
3066;SDS011;1544;48.834;9.194;2023-04-23T10:36:29;0.90;;;0.60;;
3066;SDS011;1544;48.834;9.194;2023-04-23T10:39:04;0.60;;;0.60;;
3066;SDS011;1544;48.834;9.194;2023-04-23T10:41:42;0.70;;;0.60;;
3066;SDS011;1544;48.834;9.194;2023-04-23T10:44:18;1.13;;;0.60;;
3066;SDS011;1544;48.834;9.194;2023-04-23T10:47:16;0.93;;;0.70;;
3066;SDS011;1544;48.834;9.194;2023-04-23T10:49:54;0.80;;;0.60;;
3066;SDS011;1544;48.834;9.194;2023-04-23T10:52:29;0.80;;;0.80;;
3066;SDS011;1544;48.834;9.194;2023-04-23T10:55:14;0.70;;;0.70;;
3066;SDS011;1544;48.834;9.194;2023-04-23T11:00:43;0.83;;;0.70;;
3066;SDS011;1544;48.834;9.194;2023-04-23T11:03:30;2.13;;;0.70;;
3066;SDS011;1544;48.834;9.194;2023-04-23T11:06:52;0.80;;;0.80;;
3066;SDS011;1544;48.834;9.194;2023-04-23T11:12:13;1.10;;;1.00;;
3066;SDS011;1544;48.834;9.194;2023-04-23T11:14:54;0.90;;;0.90;;
3066;SDS011;1544;48.834;9.194;2023-04-23T11:20:07;0.70;;;0.50;;
3066;SDS011;1544;48.834;9.194;2023-04-23T11:22:47;1.67;;;0.70;;
3066;SDS011;1544;48.834;9.194;2023-04-23T11:25:24;2.00;;;0.70;;
3066;SDS011;1544;48.834;9.194;2023-04-23T11:28:01;0.60;;;0.60;;
3066;SDS011;1544;48.834;9.194;2023-04-23T11:30:37;1.13;;;0.70;;
3066;SDS011;1544;48.834;9.194;2023-04-23T11:33:13;0.83;;;0.60;;
3066;SDS011;1544;48.834;9.194;2023-04-23T11:35:48;0.70;;;0.70;;
3066;SDS011;1544;48.834;9.194;2023-04-23T11:38:23;0.70;;;0.70;;
3066;SDS011;1544;48.834;9.194;2023-04-23T11:41:07;0.73;;;0.73;;
3066;SDS011;1544;48.834;9.194;2023-04-23T11:43:42;0.63;;;0.63;;
3066;SDS011;1544;48.834;9.194;2023-04-23T11:46:25;0.67;;;0.67;;
3066;SDS011;1544;48.834;9.194;2023-04-23T11:49:00;0.60;;;0.60;;
3066;SDS011;1544;48.834;9.194;2023-04-23T11:51:40;0.60;;;0.60;;
3066;SDS011;1544;48.834;9.194;2023-04-23T11:54:23;0.80;;;0.80;;
3066;SDS011;1544;48.834;9.194;2023-04-23T11:57:01;0.67;;;0.67;;
3066;SDS011;1544;48.834;9.194;2023-04-23T11:59:43;0.73;;;0.73;;
3066;SDS011;1544;48.834;9.194;2023-04-23T12:02:22;0.80;;;0.70;;
3066;SDS011;1544;48.834;9.194;2023-04-23T12:05:02;0.70;;;0.70;;
3066;SDS011;1544;48.834;9.194;2023-04-23T12:07:46;0.70;;;0.70;;
3066;SDS011;1544;48.834;9.194;2023-04-23T12:10:24;0.60;;;0.50;;
3066;SDS011;1544;48.834;9.194;2023-04-23T12:12:59;0.60;;;0.60;;
3066;SDS011;1544;48.834;9.194;2023-04-23T12:15:43;0.73;;;0.70;;
3066;SDS011;1544;48.834;9.194;2023-04-23T12:18:30;0.60;;;0.60;;
3066;SDS011;1544;48.834;9.194;2023-04-23T12:21:12;0.63;;;0.60;;
3066;SDS011;1544;48.834;9.194;2023-04-23T12:23:50;0.60;;;0.60;;
3066;SDS011;1544;48.834;9.194;2023-04-23T12:26:25;0.70;;;0.70;;
3066;SDS011;1544;48.834;9.194;2023-04-23T12:29:00;1.23;;;0.70;;
3066;SDS011;1544;48.834;9.194;2023-04-23T12:31:35;0.70;;;0.60;;
3066;SDS011;1544;48.834;9.194;2023-04-23T12:34:12;0.70;;;0.70;;
3066;SDS011;1544;48.834;9.194;2023-04-23T12:36:51;0.73;;;0.63;;
3066;SDS011;1544;48.834;9.194;2023-04-23T12:39:31;0.60;;;0.60;;
3066;SDS011;1544;48.834;9.194;2023-04-23T12:42:08;0.70;;;0.63;;
3066;SDS011;1544;48.834;9.194;2023-04-23T12:44:43;0.50;;;0.50;;
3066;SDS011;1544;48.834;9.194;2023-04-23T12:47:19;0.80;;;0.50;;
3066;SDS011;1544;48.834;9.194;2023-04-23T12:49:53;0.60;;;0.60;;
3066;SDS011;1544;48.834;9.194;2023-04-23T12:52:29;0.60;;;0.60;;
3066;SDS011;1544;48.834;9.194;2023-04-23T12:55:04;0.60;;;0.60;;
3066;SDS011;1544;48.834;9.194;2023-04-23T12:57:40;0.80;;;0.80;;
3066;SDS011;1544;48.834;9.194;2023-04-23T13:00:15;0.80;;;0.80;;
3066;SDS011;1544;48.834;9.194;2023-04-23T13:02:51;0.67;;;0.60;;
3066;SDS011;1544;48.834;9.194;2023-04-23T13:05:28;0.70;;;0.70;;
3066;SDS011;1544;48.834;9.194;2023-04-23T13:08:03;0.60;;;0.60;;
3066;SDS011;1544;48.834;9.194;2023-04-23T13:10:39;1.13;;;0.70;;
3066;SDS011;1544;48.834;9.194;2023-04-23T13:13:14;0.60;;;0.50;;
3066;SDS011;1544;48.834;9.194;2023-04-23T13:15:50;0.60;;;0.60;;
3066;SDS011;1544;48.834;9.194;2023-04-23T13:18:25;1.00;;;0.60;;
3066;SDS011;1544;48.834;9.194;2023-04-23T13:21:00;0.60;;;0.60;;
3066;SDS011;1544;48.834;9.194;2023-04-23T13:23:35;0.63;;;0.63;;
3066;SDS011;1544;48.834;9.194;2023-04-23T13:26:11;0.80;;;0.80;;
3066;SDS011;1544;48.834;9.194;2023-04-23T13:28:46;0.70;;;0.70;;
3066;SDS011;1544;48.834;9.194;2023-04-23T13:31:21;1.90;;;0.60;;
3066;SDS011;1544;48.834;9.194;2023-04-23T13:33:56;0.80;;;0.80;;
3066;SDS011;1544;48.834;9.194;2023-04-23T13:36:32;0.73;;;0.63;;
3066;SDS011;1544;48.834;9.194;2023-04-23T13:39:07;0.60;;;0.60;;
3066;SDS011;1544;48.834;9.194;2023-04-23T13:41:44;1.10;;;0.90;;
3066;SDS011;1544;48.834;9.194;2023-04-23T13:44:28;0.80;;;0.80;;
3066;SDS011;1544;48.834;9.194;2023-04-23T13:47:05;1.07;;;0.70;;
3066;SDS011;1544;48.834;9.194;2023-04-23T13:49:40;0.60;;;0.60;;
3066;SDS011;1544;48.834;9.194;2023-04-23T13:52:15;0.80;;;0.80;;
3066;SDS011;1544;48.834;9.194;2023-04-23T13:54:50;0.80;;;0.70;;
3066;SDS011;1544;48.834;9.194;2023-04-23T13:57:27;0.47;;;0.47;;
3066;SDS011;1544;48.834;9.194;2023-04-23T14:00:03;1.00;;;0.60;;
3066;SDS011;1544;48.834;9.194;2023-04-23T14:02:39;0.53;;;0.53;;
3066;SDS011;1544;48.834;9.194;2023-04-23T14:05:14;1.07;;;0.60;;
3066;SDS011;1544;48.834;9.194;2023-04-23T14:07:49;0.87;;;0.60;;
3066;SDS011;1544;48.834;9.194;2023-04-23T14:10:25;2.60;;;0.70;;
3066;SDS011;1544;48.834;9.194;2023-04-23T14:13:01;0.70;;;0.70;;
3066;SDS011;1544;48.834;9.194;2023-04-23T14:15:37;0.80;;;0.50;;
3066;SDS011;1544;48.834;9.194;2023-04-23T14:18:12;1.00;;;0.77;;
3066;SDS011;1544;48.834;9.194;2023-04-23T14:20:47;2.00;;;0.60;;
3066;SDS011;1544;48.834;9.194;2023-04-23T14:26:02;0.60;;;0.60;;
3066;SDS011;1544;48.834;9.194;2023-04-23T14:28:39;0.80;;;0.60;;
3066;SDS011;1544;48.834;9.194;2023-04-23T14:31:19;1.10;;;0.70;;
3066;SDS011;1544;48.834;9.194;2023-04-23T14:33:54;0.70;;;0.60;;
3066;SDS011;1544;48.834;9.194;2023-04-23T14:36:31;0.90;;;0.60;;
3066;SDS011;1544;48.834;9.194;2023-04-23T14:39:07;0.63;;;0.63;;
3066;SDS011;1544;48.834;9.194;2023-04-23T14:41:42;0.90;;;0.80;;
3066;SDS011;1544;48.834;9.194;2023-04-23T14:44:17;0.73;;;0.73;;
3066;SDS011;1544;48.834;9.194;2023-04-23T14:46:53;0.90;;;0.60;;
3066;SDS011;1544;48.834;9.194;2023-04-23T14:49:29;1.17;;;0.70;;
3066;SDS011;1544;48.834;9.194;2023-04-23T14:52:04;0.50;;;0.50;;
3066;SDS011;1544;48.834;9.194;2023-04-23T14:54:39;0.77;;;0.77;;
3066;SDS011;1544;48.834;9.194;2023-04-23T14:57:14;0.80;;;0.70;;
3066;SDS011;1544;48.834;9.194;2023-04-23T14:59:49;1.27;;;0.70;;
3066;SDS011;1544;48.834;9.194;2023-04-23T15:02:24;1.27;;;0.60;;
3066;SDS011;1544;48.834;9.194;2023-04-23T15:04:59;0.80;;;0.80;;
3066;SDS011;1544;48.834;9.194;2023-04-23T15:07:35;0.50;;;0.50;;
3066;SDS011;1544;48.834;9.194;2023-04-23T15:10:10;0.70;;;0.60;;
3066;SDS011;1544;48.834;9.194;2023-04-23T15:15:36;1.53;;;0.70;;
3066;SDS011;1544;48.834;9.194;2023-04-23T15:18:22;0.60;;;0.60;;
3066;SDS011;1544;48.834;9.194;2023-04-23T15:20:57;0.70;;;0.70;;
3066;SDS011;1544;48.834;9.194;2023-04-23T15:23:32;1.23;;;0.87;;
3066;SDS011;1544;48.834;9.194;2023-04-23T15:26:07;1.47;;;0.80;;
3066;SDS011;1544;48.834;9.194;2023-04-23T15:28:43;2.90;;;0.80;;
3066;SDS011;1544;48.834;9.194;2023-04-23T15:31:18;1.77;;;0.90;;
3066;SDS011;1544;48.834;9.194;2023-04-23T15:33:53;0.97;;;0.87;;
3066;SDS011;1544;48.834;9.194;2023-04-23T15:36:28;3.07;;;0.97;;
3066;SDS011;1544;48.834;9.194;2023-04-23T15:39:06;0.73;;;0.73;;
3066;SDS011;1544;48.834;9.194;2023-04-23T15:41:41;0.70;;;0.70;;
3066;SDS011;1544;48.834;9.194;2023-04-23T15:44:19;0.80;;;0.70;;
3066;SDS011;1544;48.834;9.194;2023-04-23T15:46:54;0.70;;;0.70;;
3066;SDS011;1544;48.834;9.194;2023-04-23T15:49:29;1.23;;;0.70;;
3066;SDS011;1544;48.834;9.194;2023-04-23T15:52:04;0.90;;;0.80;;
3066;SDS011;1544;48.834;9.194;2023-04-23T15:54:39;0.50;;;0.50;;
3066;SDS011;1544;48.834;9.194;2023-04-23T15:57:14;1.47;;;0.77;;
3066;SDS011;1544;48.834;9.194;2023-04-23T15:59:48;0.70;;;0.70;;
3066;SDS011;1544;48.834;9.194;2023-04-23T16:02:23;0.80;;;0.73;;
3066;SDS011;1544;48.834;9.194;2023-04-23T16:04:59;1.33;;;0.83;;
3066;SDS011;1544;48.834;9.194;2023-04-23T16:07:34;0.83;;;0.83;;
3066;SDS011;1544;48.834;9.194;2023-04-23T16:10:09;1.03;;;1.00;;
3066;SDS011;1544;48.834;9.194;2023-04-23T16:12:44;0.77;;;0.77;;
3066;SDS011;1544;48.834;9.194;2023-04-23T16:15:21;1.10;;;1.10;;
3066;SDS011;1544;48.834;9.194;2023-04-23T16:17:56;1.00;;;0.90;;
3066;SDS011;1544;48.834;9.194;2023-04-23T16:20:33;1.03;;;0.80;;
3066;SDS011;1544;48.834;9.194;2023-04-23T16:23:09;0.83;;;0.83;;
3066;SDS011;1544;48.834;9.194;2023-04-23T16:25:44;2.23;;;1.00;;
3066;SDS011;1544;48.834;9.194;2023-04-23T16:28:19;3.77;;;1.00;;